Time;durP1;ratioP1;P1;durP2;ratioP2;P2;SDS_P1;SDS_P2;PMS_P1;PMS_P2;Temp;Humidity;BMP_temperature;BMP_pressure;BME280_temperature;BME280_humidity;BME280_pressure;Samples;Min_cycle;Max_cycle;Signal;HPM_P1;HPM_P2
2021/08/23 00:00:34;;;;;;;4.82;2.70;;;;;;;17.72;54.19;101415.03;7986050;28;20402;-67
2021/08/23 00:04:25;;;;;;;4.38;2.88;;;;;;;17.71;54.36;101409.84;7986760;28;20059;-68
2021/08/23 00:08:17;;;;;;;4.32;2.60;;;;;;;17.63;54.34;101410.50;7986646;28;20045;-67
2021/08/23 00:12:07;;;;;;;5.68;2.58;;;;;;;17.63;54.42;101413.16;7987257;28;20033;-68
2021/08/23 00:15:58;;;;;;;3.88;2.72;;;;;;;17.58;54.25;101418.00;7985128;28;20037;-68
2021/08/23 00:19:49;;;;;;;3.65;2.22;;;;;;;17.54;54.47;101419.25;7988234;28;20430;-68
2021/08/23 00:23:49;;;;;;;4.10;2.60;;;;;;;17.52;54.46;101419.41;7992490;28;20034;-68
2021/08/23 00:27:40;;;;;;;3.33;2.45;;;;;;;17.50;54.59;101416.03;7981666;28;20036;-67
2021/08/23 00:31:32;;;;;;;7.40;2.63;;;;;;;17.48;54.19;101411.81;7992892;28;20037;-68
2021/08/23 00:35:23;;;;;;;5.53;3.22;;;;;;;17.49;54.66;101424.97;7993541;28;20082;-68
2021/08/23 00:39:14;;;;;;;7.00;2.83;;;;;;;17.49;54.55;101416.16;8000182;28;20082;-68
2021/08/23 00:43:05;;;;;;;4.25;2.85;;;;;;;17.49;54.70;101416.16;7994374;28;20040;-68
2021/08/23 00:46:57;;;;;;;5.05;3.08;;;;;;;17.46;54.74;101414.59;7984800;28;20500;-68
2021/08/23 00:50:48;;;;;;;4.03;2.50;;;;;;;17.50;55.02;101425.81;7978553;28;20099;-68
2021/08/23 00:54:38;;;;;;;4.15;2.88;;;;;;;17.48;54.89;101425.13;7993594;28;20029;-68
2021/08/23 00:58:29;;;;;;;3.42;2.65;;;;;;;17.50;55.08;101424.00;7993668;28;20736;-68
2021/08/23 01:02:36;;;;;;;5.95;2.63;;;;;;;17.50;55.14;101426.66;7992404;28;20028;-68
2021/08/23 01:06:29;;;;;;;4.38;3.00;;;;;;;17.51;55.24;101425.69;7990258;28;20037;-68
2021/08/23 01:10:27;;;;;;;4.15;2.83;;;;;;;17.48;55.29;101414.47;7992705;28;20025;-68
2021/08/23 01:14:19;;;;;;;5.50;2.60;;;;;;;17.51;55.21;101431.00;7991931;28;20490;-68
2021/08/23 01:18:10;;;;;;;4.85;2.65;;;;;;;17.51;55.08;101425.69;7992862;28;20045;-68
2021/08/23 01:22:04;;;;;;;3.67;2.47;;;;;;;17.51;55.45;101436.31;7992961;28;20772;-68
2021/08/23 01:25:55;;;;;;;4.88;2.78;;;;;;;17.48;55.21;101435.72;7997651;28;20033;-68
2021/08/23 01:29:59;;;;;;;4.18;2.72;;;;;;;17.51;55.52;101438.13;7984470;28;20069;-68
2021/08/23 01:33:50;;;;;;;4.57;2.55;;;;;;;17.47;55.32;101436.69;7975142;28;20044;-68
2021/08/23 01:37:40;;;;;;;4.18;2.97;;;;;;;17.51;55.39;101443.44;7992708;28;20037;-68
2021/08/23 01:41:31;;;;;;;6.05;3.22;;;;;;;17.51;55.62;101444.28;7991795;28;20083;-68
2021/08/23 01:45:22;;;;;;;4.30;2.95;;;;;;;17.49;55.73;101451.53;7991606;28;20039;-68
2021/08/23 01:49:12;;;;;;;6.68;3.38;;;;;;;17.52;55.68;101445.13;7987378;28;20032;-68
2021/08/23 01:53:03;;;;;;;2.85;2.38;;;;;;;17.49;55.60;101445.38;7991574;28;20039;-68
2021/08/23 01:56:58;;;;;;;4.38;3.20;;;;;;;17.51;55.56;101448.75;7991457;28;20037;-68
2021/08/23 02:00:49;;;;;;;5.93;2.90;;;;;;;17.51;55.88;101451.41;7988892;28;20624;-68
2021/08/23 02:04:40;;;;;;;5.93;3.33;;;;;;;17.49;55.91;101448.88;7989726;28;20025;-68
2021/08/23 02:08:31;;;;;;;6.32;3.20;;;;;;;17.51;55.66;101459.38;7989898;28;20032;-68
2021/08/23 02:12:21;;;;;;;6.15;3.20;;;;;;;17.50;55.84;101458.53;7986211;28;20045;-68
2021/08/23 02:16:12;;;;;;;4.70;3.10;;;;;;;17.49;55.78;101462.16;7980517;28;20033;-69
2021/08/23 02:20:05;;;;;;;3.97;3.22;;;;;;;17.47;56.00;101455.28;7982649;28;20516;-68
2021/08/23 02:23:56;;;;;;;5.75;3.97;;;;;;;17.48;55.94;101459.63;7987561;28;20090;-68
2021/08/23 02:27:46;;;;;;;4.20;3.30;;;;;;;17.48;56.25;101467.59;7991576;28;20478;-69
2021/08/23 02:31:37;;;;;;;4.65;3.50;;;;;;;17.47;56.02;101481.84;7989169;28;20033;-68
2021/08/23 02:35:28;;;;;;;5.70;4.15;;;;;;;17.45;55.92;101476.66;7988478;28;20028;-68
2021/08/23 02:39:18;;;;;;;4.32;3.65;;;;;;;17.40;56.16;101478.84;7984897;28;20039;-68
2021/08/23 02:43:09;;;;;;;4.97;4.05;;;;;;;17.44;56.16;101490.94;7988587;28;20033;-68
2021/08/23 02:47:00;;;;;;;4.53;3.60;;;;;;;17.42;56.25;101492.88;7987060;28;20037;-68
2021/08/23 02:50:50;;;;;;;5.43;3.05;;;;;;;17.41;56.33;101493.84;7989259;28;20514;-68
2021/08/23 02:54:41;;;;;;;5.13;3.90;;;;;;;17.40;56.43;101505.41;7993328;28;20045;-68
2021/08/23 02:58:31;;;;;;;3.92;3.35;;;;;;;17.41;56.46;101500.94;7990683;28;20040;-68
2021/08/23 03:02:22;;;;;;;7.82;3.70;;;;;;;17.37;56.28;101503.03;7989562;28;20025;-67
2021/08/23 03:06:13;;;;;;;4.72;3.30;;;;;;;17.34;56.24;101494.50;7972264;28;20037;-67
2021/08/23 03:10:05;;;;;;;3.88;3.10;;;;;;;17.33;56.31;101511.38;7990311;28;20588;-68
2021/08/23 03:13:56;;;;;;;5.78;3.42;;;;;;;17.27;56.47;101504.81;7995483;28;20047;-67
2021/08/23 03:17:47;;;;;;;3.67;3.15;;;;;;;17.24;56.08;101514.84;7991180;28;20398;-68
2021/08/23 03:21:38;;;;;;;5.55;3.63;;;;;;;17.11;56.15;101498.25;7987678;28;20713;-68
2021/08/23 03:25:28;;;;;;;6.07;3.70;;;;;;;17.12;56.20;101510.53;7988204;28;20090;-67
2021/08/23 03:29:19;;;;;;;4.32;3.03;;;;;;;17.09;56.32;101524.91;7988538;28;20044;-67
2021/08/23 03:33:11;;;;;;;3.15;2.63;;;;;;;16.99;56.18;101522.16;7972781;28;20040;-68
2021/08/23 03:37:01;;;;;;;3.85;2.80;;;;;;;17.00;56.29;101526.53;7988227;28;20036;-68
2021/08/23 03:40:52;;;;;;;3.40;2.80;;;;;;;16.95;56.35;101522.53;7993243;28;20033;-68
2021/08/23 03:44:43;;;;;;;6.15;3.28;;;;;;;16.87;56.37;101532.91;7987591;28;20039;-67
2021/08/23 03:48:34;;;;;;;4.13;3.15;;;;;;;16.85;56.39;101533.06;7987003;28;20590;-68
2021/08/23 03:52:24;;;;;;;3.53;2.75;;;;;;;16.80;56.15;101534.41;7987212;28;20029;-68
2021/08/23 03:56:15;;;;;;;3.88;2.90;;;;;;;16.77;56.36;101542.63;7983959;28;20052;-67
2021/08/23 04:00:08;;;;;;;7.25;3.38;;;;;;;16.74;56.49;101549.00;7988199;28;20062;-68
2021/08/23 04:03:59;;;;;;;3.30;3.00;;;;;;;16.74;56.32;101562.25;7981944;28;20033;-68
2021/08/23 04:07:50;;;;;;;4.63;3.45;;;;;;;16.74;56.60;101564.09;7987373;28;20055;-68
2021/08/23 04:11:41;;;;;;;6.53;3.78;;;;;;;16.75;56.76;101557.81;7986526;28;20490;-68
2021/08/23 04:15:32;;;;;;;5.35;3.92;;;;;;;16.74;56.70;101567.56;7988934;28;20023;-68
2021/08/23 04:19:23;;;;;;;5.32;3.33;;;;;;;16.74;56.72;101564.91;7970640;28;20036;-68
2021/08/23 04:23:13;;;;;;;6.97;3.50;;;;;;;16.75;56.93;101573.72;7986221;28;20029;-68
2021/08/23 04:27:04;;;;;;;7.95;3.90;;;;;;;16.74;56.76;101578.19;7988617;28;20029;-68
2021/08/23 04:30:54;;;;;;;6.05;3.50;;;;;;;16.72;56.71;101568.69;7987137;28;20034;-68
2021/08/23 04:34:45;;;;;;;4.88;3.60;;;;;;;16.74;56.96;101594.09;7986983;28;20029;-68
2021/08/23 04:38:35;;;;;;;4.90;3.58;;;;;;;16.74;56.85;101593.28;7983791;28;20041;-68
2021/08/23 04:42:26;;;;;;;4.57;3.70;;;;;;;16.69;57.01;101598.97;7988491;28;20043;-68
2021/08/23 04:46:18;;;;;;;6.88;4.00;;;;;;;16.69;57.01;101601.63;7985581;28;20029;-68
2021/08/23 04:50:09;;;;;;;5.10;3.90;;;;;;;16.75;57.07;101613.53;7979697;28;20041;-68
2021/08/23 04:53:59;;;;;;;4.78;3.78;;;;;;;16.75;57.02;101613.53;7984891;28;20036;-67
2021/08/23 04:57:52;;;;;;;4.55;3.83;;;;;;;16.74;57.19;101609.22;7976155;28;20041;-67
2021/08/23 05:01:43;;;;;;;4.85;3.83;;;;;;;16.73;56.97;101616.31;7998586;28;20036;-67
2021/08/23 05:05:35;;;;;;;5.63;3.72;;;;;;;16.72;56.81;101617.28;7997346;28;20116;-67
2021/08/23 05:09:25;;;;;;;5.35;4.00;;;;;;;16.69;57.01;101616.69;7986874;28;20413;-67
2021/08/23 05:13:16;;;;;;;5.15;3.63;;;;;;;16.62;56.96;101605.69;7976932;28;20041;-67
2021/08/23 05:17:07;;;;;;;4.68;3.78;;;;;;;16.67;56.96;101624.75;7975451;28;20041;-67
2021/08/23 05:21:03;;;;;;;4.68;3.90;;;;;;;16.66;57.14;101631.03;7977128;28;20047;-66
2021/08/23 05:24:54;;;;;;;11.48;3.92;;;;;;;16.67;57.21;101635.38;7985605;28;20037;-67
2021/08/23 05:28:44;;;;;;;5.57;3.80;;;;;;;16.69;57.56;101637.91;7981594;28;20044;-67
2021/08/23 05:32:35;;;;;;;6.20;3.55;;;;;;;16.71;57.43;101646.56;7997269;28;20039;-67
2021/08/23 05:36:25;;;;;;;5.75;4.30;;;;;;;16.68;57.40;101638.88;7995420;28;20041;-67
2021/08/23 05:40:17;;;;;;;6.03;4.28;;;;;;;16.74;57.42;101644.50;7976586;28;20674;-67
2021/08/23 05:44:07;;;;;;;6.28;4.75;;;;;;;16.77;57.29;101649.59;7972507;28;20044;-67
2021/08/23 05:47:58;;;;;;;9.88;5.30;;;;;;;16.79;57.59;101654.75;7985084;28;20059;-67
2021/08/23 05:51:49;;;;;;;6.93;5.10;;;;;;;16.79;57.69;101652.94;7985863;28;20370;-67
2021/08/23 05:55:40;;;;;;;6.53;4.50;;;;;;;16.83;57.74;101657.06;7971623;28;20030;-67
2021/08/23 05:59:32;;;;;;;6.15;4.55;;;;;;;16.91;57.72;101669.69;7985593;28;20035;-67
2021/08/23 06:03:22;;;;;;;7.47;4.90;;;;;;;16.94;57.84;101664.19;7985393;28;20562;-67
2021/08/23 06:07:16;;;;;;;6.22;4.70;;;;;;;16.99;57.89;101669.94;7977649;28;20095;-66
2021/08/23 06:11:07;;;;;;;6.10;4.70;;;;;;;17.02;57.80;101675.03;7991264;28;20040;-67
2021/08/23 06:14:57;;;;;;;6.65;4.65;;;;;;;17.04;57.77;101678.41;7976146;28;20034;-67
2021/08/23 06:18:48;;;;;;;6.32;4.65;;;;;;;17.07;57.96;101678.19;7993863;28;20033;-67
2021/08/23 06:22:38;;;;;;;7.30;4.38;;;;;;;17.09;57.83;101682.38;7991939;28;20036;-67
2021/08/23 06:26:29;;;;;;;6.93;5.20;;;;;;;17.12;58.14;101683.94;7982509;28;20037;-67
2021/08/23 06:30:19;;;;;;;9.20;4.65;;;;;;;17.14;58.00;101689.97;8004262;28;20034;-67
2021/08/23 06:34:10;;;;;;;5.18;4.13;;;;;;;17.16;58.00;101687.19;7983999;28;20510;-67
2021/08/23 06:38:01;;;;;;;7.18;5.10;;;;;;;17.16;57.78;101685.38;7992070;28;20037;-66
2021/08/23 06:41:51;;;;;;;9.82;5.85;;;;;;;17.22;57.94;101687.53;7976551;28;20156;-67
2021/08/23 06:45:42;;;;;;;9.18;6.50;;;;;;;17.46;58.21;101684.69;7973670;28;20025;-67
2021/08/23 06:49:32;;;;;;;6.68;5.28;;;;;;;17.75;58.15;101685.78;7991707;28;20036;-67
2021/08/23 06:53:23;;;;;;;7.63;6.10;;;;;;;17.91;58.00;101695.97;8004593;28;20063;-67
2021/08/23 06:57:13;;;;;;;8.27;5.28;;;;;;;17.95;57.87;101708.03;7975024;28;20034;-67
2021/08/23 07:01:04;;;;;;;7.47;5.90;;;;;;;17.95;57.99;101708.88;7976410;28;20041;-67
2021/08/23 07:04:56;;;;;;;10.15;6.07;;;;;;;17.89;57.83;101716.53;7986335;28;20553;-66
2021/08/23 07:08:47;;;;;;;7.78;6.38;;;;;;;17.87;57.67;101726.44;7982287;28;20031;-67
2021/08/23 07:12:40;;;;;;;11.75;7.90;;;;;;;17.87;57.98;101731.75;7975581;28;20044;-67
2021/08/23 07:16:30;;;;;;;13.10;9.57;;;;;;;17.84;57.66;101738.19;7972206;28;20030;-67
2021/08/23 07:20:21;;;;;;;12.65;9.18;;;;;;;17.79;58.00;101728.91;7993169;28;20035;-66
2021/08/23 07:24:12;;;;;;;15.40;9.73;;;;;;;17.74;58.13;101723.97;7980480;28;20075;-67
2021/08/23 07:28:02;;;;;;;16.17;11.15;;;;;;;17.75;57.58;101728.31;7980486;28;20037;-67
2021/08/23 07:31:53;;;;;;;16.67;11.95;;;;;;;17.81;57.87;101721.66;7971835;28;20037;-68
2021/08/23 07:35:43;;;;;;;16.73;12.02;;;;;;;17.89;58.02;101725.38;7986160;28;20029;-66
2021/08/23 07:39:34;;;;;;;19.80;12.55;;;;;;;18.00;57.86;101727.13;7986618;28;20393;-67
2021/08/23 07:43:25;;;;;;;17.60;12.13;;;;;;;18.05;57.84;101722.25;7980347;28;20036;-67
2021/08/23 07:47:16;;;;;;;16.80;12.60;;;;;;;18.07;57.83;101728.28;7965286;28;20040;-67
2021/08/23 07:51:07;;;;;;;18.88;12.07;;;;;;;18.08;58.01;101729.97;7971677;28;20045;-68
2021/08/23 07:54:57;;;;;;;14.13;10.63;;;;;;;18.06;57.76;101729.28;7981199;28;20041;-67
2021/08/23 07:58:48;;;;;;;13.15;9.48;;;;;;;18.08;57.60;101734.44;7971532;28;21097;-67
2021/08/23 08:02:39;;;;;;;14.30;10.40;;;;;;;18.04;57.98;101728.53;7976496;28;20021;-67
2021/08/23 08:06:29;;;;;;;13.02;9.77;;;;;;;18.01;57.88;101742.09;7947270;28;20116;-67
2021/08/23 08:10:26;;;;;;;11.68;9.38;;;;;;;18.00;57.60;101751.03;7964524;28;20030;-67
2021/08/23 08:14:16;;;;;;;11.07;8.77;;;;;;;18.01;57.78;101758.06;7962569;28;20089;-67
2021/08/23 08:18:07;;;;;;;11.63;8.80;;;;;;;17.99;57.80;101757.31;7964514;28;20038;-67
2021/08/23 08:22:04;;;;;;;11.55;8.07;;;;;;;17.99;57.79;101762.63;7981428;28;20045;-67
2021/08/23 08:25:55;;;;;;;11.43;7.75;;;;;;;17.99;57.50;101765.28;7965632;28;20044;-67
2021/08/23 08:29:45;;;;;;;10.57;8.65;;;;;;;17.95;57.50;101761.22;7966378;28;20121;-67
2021/08/23 08:33:36;;;;;;;8.27;6.78;;;;;;;17.96;57.57;101774.38;7967830;28;20083;-67
2021/08/23 08:37:27;;;;;;;10.05;6.88;;;;;;;17.97;57.76;101781.41;7965408;28;20087;-67
2021/08/23 08:41:19;;;;;;;7.72;6.03;;;;;;;17.97;57.95;101780.53;7966436;28;20046;-67
2021/08/23 08:45:10;;;;;;;6.40;5.32;;;;;;;18.00;57.49;101785.59;7971849;28;20041;-67
2021/08/23 08:49:03;;;;;;;6.63;5.38;;;;;;;18.00;57.44;101786.44;7981276;28;20053;-67
2021/08/23 08:52:54;;;;;;;6.55;5.28;;;;;;;18.02;57.80;101791.66;7984613;28;20046;-67
2021/08/23 08:56:44;;;;;;;5.43;4.03;;;;;;;18.02;57.48;101794.31;7980184;28;20043;-66
2021/08/23 09:00:40;;;;;;;5.35;4.38;;;;;;;18.00;57.67;101796.22;7973090;28;20068;-67
2021/08/23 09:04:35;;;;;;;8.98;4.60;;;;;;;18.00;57.48;101806.88;7978548;28;20029;-67
2021/08/23 09:08:28;;;;;;;8.45;4.97;;;;;;;18.00;57.52;101806.88;7973195;28;20749;-67
2021/08/23 09:12:19;;;;;;;6.55;5.22;;;;;;;17.98;57.30;101812.28;7971898;28;20029;-67
2021/08/23 09:16:10;;;;;;;5.65;4.63;;;;;;;17.98;57.32;101799.00;7970361;28;20037;-67
2021/08/23 09:20:05;;;;;;;6.32;4.90;;;;;;;18.08;57.81;101809.72;7973456;28;20064;-67
2021/08/23 09:23:59;;;;;;;7.60;5.03;;;;;;;18.13;57.64;101818.19;7971439;28;20041;-67
2021/08/23 09:28:01;;;;;;;6.75;4.97;;;;;;;18.12;57.34;101816.47;7985234;28;20406;-67
2021/08/23 09:31:58;;;;;;;6.22;5.22;;;;;;;18.13;57.39;101828.81;7975462;28;20496;-67
2021/08/23 09:35:51;;;;;;;6.10;5.00;;;;;;;18.15;56.96;101826.84;7972226;28;20037;-67
2021/08/23 09:39:43;;;;;;;6.97;5.43;;;;;;;18.21;57.16;101834.34;7971216;28;20116;-67
2021/08/23 09:43:35;;;;;;;6.75;4.80;;;;;;;18.25;57.07;101834.91;7970994;28;20026;-66
2021/08/23 09:47:29;;;;;;;7.18;5.75;;;;;;;18.35;56.70;101838.50;7968129;28;20083;-67
2021/08/23 09:51:27;;;;;;;6.20;4.80;;;;;;;18.40;57.15;101833.63;7975897;28;21163;-67
2021/08/23 09:55:19;;;;;;;9.60;6.32;;;;;;;18.50;56.96;101836.41;7977418;28;20048;-67
2021/08/23 09:59:24;;;;;;;9.60;7.15;;;;;;;18.57;56.81;101829.56;7970306;28;20038;-67
2021/08/23 10:03:20;;;;;;;11.35;6.70;;;;;;;18.81;56.87;101836.31;7970712;28;20038;-67
2021/08/23 10:07:12;;;;;;;10.40;7.15;;;;;;;19.01;56.46;101852.41;7971423;28;20603;-68
2021/08/23 10:11:03;;;;;;;8.30;6.97;;;;;;;19.08;56.17;101842.91;7971225;28;20044;-67
2021/08/23 10:14:54;;;;;;;8.40;6.47;;;;;;;19.03;56.12;101848.63;7967527;28;20041;-67
2021/08/23 10:18:45;;;;;;;7.05;5.25;;;;;;;19.05;56.00;101859.16;7968058;28;20111;-67
2021/08/23 10:22:39;;;;;;;7.72;5.70;;;;;;;19.05;56.00;101859.16;7965762;28;20083;-66
2021/08/23 10:26:45;;;;;;;7.85;5.60;;;;;;;19.13;55.76;101869.97;7966060;28;20037;-68
2021/08/23 10:30:37;;;;;;;5.65;4.15;;;;;;;19.11;55.91;101850.63;7965908;28;20064;-68
2021/08/23 10:34:28;;;;;;;6.78;5.13;;;;;;;19.15;55.47;101854.72;7965159;28;20040;-68
2021/08/23 10:38:24;;;;;;;6.90;5.18;;;;;;;19.18;55.44;101863.31;7965622;28;20147;-68
2021/08/23 10:42:16;;;;;;;8.90;5.55;;;;;;;19.24;55.77;101868.09;7966750;28;20041;-68
2021/08/23 10:46:20;;;;;;;6.95;4.88;;;;;;;19.33;55.33;101855.81;7963988;28;20038;-68
2021/08/23 10:50:25;;;;;;;8.18;5.10;;;;;;;19.48;55.12;101859.78;7967878;28;20053;-68
2021/08/23 10:54:21;;;;;;;13.70;5.72;;;;;;;19.60;55.43;101865.84;7964122;28;20037;-69
2021/08/23 10:58:12;;;;;;;8.13;5.25;;;;;;;19.64;55.01;101853.94;7964114;28;20741;-68
2021/08/23 11:02:03;;;;;;;6.72;5.20;;;;;;;19.69;55.05;101862.34;7964611;28;20725;-68
2021/08/23 11:06:03;;;;;;;8.38;5.55;;;;;;;19.71;55.07;101853.25;7964001;28;20110;-68
2021/08/23 11:10:07;;;;;;;8.20;5.13;;;;;;;19.76;54.56;101852.84;7967572;28;20414;-67
2021/08/23 11:13:58;;;;;;;5.25;4.47;;;;;;;19.80;54.75;101855.09;7965856;28;20033;-67
2021/08/23 11:17:56;;;;;;;6.28;4.45;;;;;;;19.84;54.81;101853.00;7971790;28;20687;-67
2021/08/23 11:21:55;;;;;;;5.60;4.40;;;;;;;19.81;54.78;101855.91;7970721;28;20037;-66
2021/08/23 11:25:49;;;;;;;9.15;4.78;;;;;;;19.80;54.47;101855.09;7970671;28;20102;-66
2021/08/23 11:29:50;;;;;;;4.75;4.22;;;;;;;19.87;54.19;101868.75;7966931;28;20599;-67
2021/08/23 11:33:41;;;;;;;11.73;4.25;;;;;;;19.92;54.32;101860.34;7967019;28;20379;-66
2021/08/23 11:37:33;;;;;;;5.82;3.63;;;;;;;19.93;54.42;101859.38;7965332;28;20041;-66
2021/08/23 11:41:23;;;;;;;10.18;4.68;;;;;;;19.94;54.16;101877.03;7963965;28;20106;-67
2021/08/23 11:45:20;;;;;;;7.15;4.78;;;;;;;19.89;54.08;101868.63;7963047;28;20037;-67
2021/08/23 11:49:11;;;;;;;6.05;4.90;;;;;;;19.83;53.61;101877.97;7962976;28;20034;-66
2021/08/23 11:53:07;;;;;;;7.93;4.47;;;;;;;19.83;53.50;101878.81;7964585;28;20043;-67
2021/08/23 11:57:07;;;;;;;5.32;4.22;;;;;;;19.81;53.80;101872.75;7964137;28;20040;-66
2021/08/23 12:01:06;;;;;;;6.68;4.22;;;;;;;19.82;53.39;101869.13;7966430;28;20118;-67
2021/08/23 12:05:16;;;;;;;7.20;4.25;;;;;;;19.85;53.82;101880.50;7962633;28;20116;-67
2021/08/23 12:09:06;;;;;;;9.55;5.07;;;;;;;19.91;53.83;101875.50;7966286;28;20048;-67
2021/08/23 12:13:16;;;;;;;9.23;4.50;;;;;;;19.95;53.63;101870.72;7963529;28;20037;-67
2021/08/23 12:17:08;;;;;;;7.18;4.20;;;;;;;20.01;53.75;101879.00;7966580;28;20080;-67
2021/08/23 12:21:07;;;;;;;8.25;4.57;;;;;;;20.11;53.67;101881.69;7973691;28;20763;-67
2021/08/23 12:25:00;;;;;;;6.28;5.35;;;;;;;20.20;53.87;101883.53;7971335;28;20462;-66
2021/08/23 12:28:54;;;;;;;8.73;5.03;;;;;;;20.25;53.65;101879.47;7969423;28;20636;-67
2021/08/23 12:32:44;;;;;;;6.95;5.32;;;;;;;20.28;53.46;101868.50;7974961;28;20046;-67
2021/08/23 12:36:35;;;;;;;7.22;4.88;;;;;;;20.33;53.65;101877.91;7968813;28;20041;-67
2021/08/23 12:40:25;;;;;;;7.88;5.30;;;;;;;20.32;53.39;101895.75;7971706;28;20033;-67
2021/08/23 12:44:16;;;;;;;9.07;5.50;;;;;;;20.30;53.33;101888.88;7970382;28;20716;-66
2021/08/23 12:48:06;;;;;;;6.05;4.75;;;;;;;20.31;53.17;101885.19;7965044;28;20044;-66
2021/08/23 12:51:58;;;;;;;6.40;4.68;;;;;;;20.42;53.15;101885.91;7962090;28;20505;-66
2021/08/23 12:55:48;;;;;;;7.35;5.22;;;;;;;20.48;53.05;101889.84;7967226;28;20153;-67
2021/08/23 12:59:39;;;;;;;8.40;5.35;;;;;;;20.52;52.74;101889.41;7967328;28;21583;-66
2021/08/23 13:03:30;;;;;;;9.50;5.93;;;;;;;20.56;52.72;101882.84;7967783;28;20490;-66
2021/08/23 13:07:20;;;;;;;6.50;5.32;;;;;;;20.58;52.87;101888.03;7968733;28;20059;-67
2021/08/23 13:11:11;;;;;;;5.45;4.80;;;;;;;20.56;52.60;101887.31;7970235;28;20140;-67
2021/08/23 13:15:03;;;;;;;8.20;5.40;;;;;;;20.53;52.62;101896.47;7967380;28;20056;-67
2021/08/23 13:18:53;;;;;;;8.55;5.43;;;;;;;20.51;52.33;101886.91;7966851;28;20046;-66
2021/08/23 13:22:44;;;;;;;8.10;5.55;;;;;;;20.50;52.44;101894.06;7969705;28;20086;-66
2021/08/23 13:26:36;;;;;;;6.45;4.65;;;;;;;20.49;52.78;101895.03;7968914;28;20394;-67
2021/08/23 13:30:27;;;;;;;7.03;5.18;;;;;;;20.48;51.85;101889.84;7967410;28;20029;-65
2021/08/23 13:34:18;;;;;;;6.38;5.03;;;;;;;20.50;52.06;101898.56;7967159;28;20125;-67
2021/08/23 13:38:11;;;;;;;5.95;4.55;;;;;;;20.50;52.29;101888.72;7970270;28;20112;-66
2021/08/23 13:42:01;;;;;;;5.55;4.78;;;;;;;20.55;52.26;101891.81;7966069;28;20651;-67
2021/08/23 13:45:52;;;;;;;6.75;4.32;;;;;;;20.54;52.02;101882.16;7961972;28;20039;-66
2021/08/23 13:49:42;;;;;;;21.88;5.68;;;;;;;20.62;51.62;101900.97;7969130;28;20034;-66
2021/08/23 13:53:33;;;;;;;7.38;5.50;;;;;;;20.64;51.83;101893.66;7971384;28;20799;-66
2021/08/23 13:57:25;;;;;;;7.50;5.40;;;;;;;20.67;51.48;101898.72;7975578;28;20036;-67
2021/08/23 14:01:16;;;;;;;7.18;4.88;;;;;;;20.72;51.51;101898.25;7979449;28;20517;-67
2021/08/23 14:05:07;;;;;;;5.72;4.93;;;;;;;20.72;51.35;101887.59;7974935;28;20048;-67
2021/08/23 14:08:58;;;;;;;6.85;5.57;;;;;;;20.73;51.48;101890.13;7976870;28;20123;-67
2021/08/23 14:12:49;;;;;;;10.18;6.32;;;;;;;20.78;51.04;101892.38;7972147;28;20045;-68
2021/08/23 14:16:39;;;;;;;10.65;5.50;;;;;;;20.79;51.08;101893.22;7963687;28;20711;-68
2021/08/23 14:20:30;;;;;;;14.43;5.53;;;;;;;20.81;51.15;101894.75;7966708;28;20638;-67
2021/08/23 14:24:21;;;;;;;7.07;4.53;;;;;;;20.79;50.83;101894.06;7966583;28;20057;-67
2021/08/23 14:28:13;;;;;;;6.15;4.75;;;;;;;20.75;51.03;101895.34;7965971;28;20036;-68
2021/08/23 14:32:04;;;;;;;7.43;5.00;;;;;;;20.78;50.95;101896.88;7968673;28;20033;-68
2021/08/23 14:35:54;;;;;;;9.48;4.93;;;;;;;20.75;50.78;101897.16;7967053;28;20045;-68
2021/08/23 14:39:45;;;;;;;5.53;4.40;;;;;;;20.66;50.93;101894.34;7966324;28;20048;-68
2021/08/23 14:43:36;;;;;;;6.15;4.07;;;;;;;20.65;51.06;101892.66;7962410;28;20044;-68
2021/08/23 14:47:27;;;;;;;5.82;4.45;;;;;;;20.64;50.84;101895.47;7962369;28;20494;-68
2021/08/23 14:51:18;;;;;;;6.68;4.88;;;;;;;20.63;50.62;101893.81;7964977;28;20047;-68
2021/08/23 14:55:12;;;;;;;5.40;4.18;;;;;;;20.62;50.84;101900.13;7965228;28;20049;-68
2021/08/23 14:59:04;;;;;;;5.75;3.85;;;;;;;20.64;51.18;101898.13;7965618;28;20064;-68
2021/08/23 15:02:55;;;;;;;4.10;3.47;;;;;;;20.61;51.20;101893.09;7967612;28;20029;-68
2021/08/23 15:06:45;;;;;;;6.65;3.97;;;;;;;20.65;50.85;101899.84;7965457;28;20547;-68
2021/08/23 15:10:36;;;;;;;7.07;3.67;;;;;;;20.66;51.04;101901.53;7966436;28;20041;-68
2021/08/23 15:14:26;;;;;;;5.40;3.60;;;;;;;20.66;50.94;101904.19;7961424;28;20041;-68
2021/08/23 15:18:17;;;;;;;6.35;4.38;;;;;;;20.66;50.65;101904.19;7960848;28;20131;-68
2021/08/23 15:22:07;;;;;;;5.15;3.50;;;;;;;20.65;50.84;101907.84;7966964;28;20045;-68
2021/08/23 15:25:58;;;;;;;5.35;3.15;;;;;;;20.66;50.84;101904.19;7964284;28;20037;-68
2021/08/23 15:29:49;;;;;;;6.50;3.47;;;;;;;20.71;50.97;101907.28;7961535;28;20668;-68
2021/08/23 15:33:39;;;;;;;5.18;3.20;;;;;;;20.76;50.84;101909.53;7963590;28;20040;-68
2021/08/23 15:37:30;;;;;;;4.28;3.08;;;;;;;20.75;50.92;101895.34;7963185;28;20106;-68
2021/08/23 15:41:21;;;;;;;4.85;3.33;;;;;;;20.84;50.74;101907.81;7964788;28;20506;-67
2021/08/23 15:45:12;;;;;;;12.32;3.63;;;;;;;20.85;50.58;101911.31;7962209;28;20038;-67
2021/08/23 15:49:02;;;;;;;5.15;3.25;;;;;;;20.84;50.37;101913.13;7964709;28;20065;-66
2021/08/23 15:52:53;;;;;;;4.05;3.08;;;;;;;20.86;50.19;101926.38;7962148;28;20044;-67
2021/08/23 15:56:44;;;;;;;4.45;3.03;;;;;;;20.86;50.07;101918.34;7981436;28;20397;-67
2021/08/23 16:00:34;;;;;;;4.93;3.03;;;;;;;20.86;50.44;101921.03;7977621;28;20026;-67
2021/08/23 16:04:25;;;;;;;5.95;3.80;;;;;;;20.85;50.17;101924.66;7971304;28;20013;-67
2021/08/23 16:08:16;;;;;;;5.72;2.85;;;;;;;20.83;50.16;101921.31;7981995;28;20045;-67
2021/08/23 16:12:08;;;;;;;7.35;3.05;;;;;;;20.81;49.99;101920.59;7966996;28;20413;-68
2021/08/23 16:15:58;;;;;;;3.30;2.47;;;;;;;20.79;49.69;101926.09;7963161;28;20045;-66
2021/08/23 16:19:49;;;;;;;4.65;1.92;;;;;;;20.78;49.97;101918.22;7961071;28;20037;-68
2021/08/23 16:23:41;;;;;;;2.65;2.03;;;;;;;20.77;50.22;101912.03;7964375;28;20632;-68
2021/08/23 16:27:32;;;;;;;4.28;1.83;;;;;;;20.78;50.21;101912.88;7960932;28;20924;-67
2021/08/23 16:31:22;;;;;;;2.35;1.60;;;;;;;20.78;49.91;101918.22;7966426;28;20033;-66
2021/08/23 16:35:13;;;;;;;3.25;1.58;;;;;;;20.75;50.08;101921.19;7963839;28;20039;-66
2021/08/23 16:39:03;;;;;;;3.63;1.75;;;;;;;20.69;50.14;101925.25;7963203;28;20535;-67
2021/08/23 16:42:54;;;;;;;2.53;1.67;;;;;;;20.64;50.14;101927.50;7966558;28;20038;-67
2021/08/23 16:46:45;;;;;;;3.08;2.08;;;;;;;20.60;50.08;101926.09;7960630;28;20087;-67
2021/08/23 16:50:39;;;;;;;2.38;1.65;;;;;;;20.54;49.76;101922.19;7972536;28;20087;-69
2021/08/23 16:54:31;;;;;;;4.13;2.03;;;;;;;20.48;50.22;101920.03;7964680;28;20133;-72
2021/08/23 16:58:22;;;;;;;2.45;1.80;;;;;;;20.45;50.19;101928.34;7964503;28;20069;-66
2021/08/23 17:02:12;;;;;;;2.78;2.20;;;;;;;20.43;49.98;101919.59;7950550;28;20067;-66
2021/08/23 17:06:03;;;;;;;5.20;2.47;;;;;;;20.41;50.18;101920.75;7969022;28;20041;-71
2021/08/23 17:09:54;;;;;;;7.53;2.17;;;;;;;20.42;50.59;101915.28;7967435;28;20653;-71
2021/08/23 17:13:44;;;;;;;6.30;3.30;;;;;;;20.43;50.26;101916.94;7970686;28;20033;-70
2021/08/23 17:17:35;;;;;;;5.38;3.10;;;;;;;20.42;50.11;101914.44;7967124;28;20082;-71
2021/08/23 17:21:25;;;;;;;5.82;3.20;;;;;;;20.41;49.97;101912.75;7971270;28;20048;-71
2021/08/23 17:25:16;;;;;;;7.75;2.95;;;;;;;20.39;49.92;101906.69;7969023;28;20029;-71
2021/08/23 17:29:07;;;;;;;3.35;2.58;;;;;;;20.37;49.80;101911.34;7969222;28;20116;-71
2021/08/23 17:32:58;;;;;;;3.28;2.40;;;;;;;20.34;50.04;101915.13;7968597;28;20034;-70
2021/08/23 17:36:48;;;;;;;5.85;2.60;;;;;;;20.34;49.84;101925.81;7966427;28;20045;-71
2021/08/23 17:40:39;;;;;;;11.20;2.95;;;;;;;20.32;49.58;101927.75;7953248;28;20505;-71
2021/08/23 17:44:29;;;;;;;5.93;2.47;;;;;;;20.23;49.69;101917.91;7964803;28;20177;-71
2021/08/23 17:48:20;;;;;;;4.93;2.00;;;;;;;20.20;50.05;101931.53;7967189;28;20036;-71
2021/08/23 17:52:12;;;;;;;2.63;1.90;;;;;;;20.17;49.81;101932.69;7967365;28;20763;-72
2021/08/23 17:56:03;;;;;;;6.22;2.20;;;;;;;20.04;50.13;101918.75;7967211;28;20045;-72